sensor_id;sensor_type;location;lat;lon;timestamp;P1;durP1;ratioP1;P2;durP2;ratioP2
70545;SDS011;58098;51.680;5.134;2022-12-18T00:01:02;69.50;;;23.02;;
70545;SDS011;58098;51.680;5.134;2022-12-18T00:03:32;72.23;;;22.80;;
70545;SDS011;58098;51.680;5.134;2022-12-18T00:06:00;71.95;;;22.48;;
70545;SDS011;58098;51.680;5.134;2022-12-18T00:08:27;73.82;;;23.65;;
70545;SDS011;58098;51.680;5.134;2022-12-18T00:10:53;71.80;;;23.08;;
70545;SDS011;58098;51.680;5.134;2022-12-18T00:13:18;70.23;;;24.50;;
70545;SDS011;58098;51.680;5.134;2022-12-18T00:15:44;61.63;;;21.47;;
70545;SDS011;58098;51.680;5.134;2022-12-18T00:18:09;78.90;;;21.33;;
70545;SDS011;58098;51.680;5.134;2022-12-18T00:20:38;64.75;;;21.75;;
70545;SDS011;58098;51.680;5.134;2022-12-18T00:23:05;65.80;;;22.33;;
70545;SDS011;58098;51.680;5.134;2022-12-18T00:25:35;60.13;;;21.60;;
70545;SDS011;58098;51.680;5.134;2022-12-18T00:28:01;68.78;;;23.60;;
70545;SDS011;58098;51.680;5.134;2022-12-18T00:30:30;65.78;;;22.60;;
70545;SDS011;58098;51.680;5.134;2022-12-18T00:32:55;71.33;;;22.80;;
70545;SDS011;58098;51.680;5.134;2022-12-18T00:35:22;67.82;;;22.15;;
70545;SDS011;58098;51.680;5.134;2022-12-18T00:37:47;73.83;;;23.77;;
70545;SDS011;58098;51.680;5.134;2022-12-18T00:40:12;76.93;;;23.43;;
70545;SDS011;58098;51.680;5.134;2022-12-18T00:42:38;71.07;;;23.50;;
70545;SDS011;58098;51.680;5.134;2022-12-18T00:45:22;64.55;;;21.95;;
70545;SDS011;58098;51.680;5.134;2022-12-18T00:47:48;67.83;;;22.30;;
70545;SDS011;58098;51.680;5.134;2022-12-18T00:50:14;70.10;;;23.70;;
70545;SDS011;58098;51.680;5.134;2022-12-18T00:52:39;68.03;;;23.67;;
70545;SDS011;58098;51.680;5.134;2022-12-18T00:55:05;68.57;;;22.37;;
70545;SDS011;58098;51.680;5.134;2022-12-18T00:57:30;64.72;;;23.52;;
70545;SDS011;58098;51.680;5.134;2022-12-18T00:59:56;65.17;;;21.83;;
70545;SDS011;58098;51.680;5.134;2022-12-18T01:02:21;59.90;;;21.53;;
70545;SDS011;58098;51.680;5.134;2022-12-18T01:04:46;68.27;;;22.00;;
70545;SDS011;58098;51.680;5.134;2022-12-18T01:07:12;71.60;;;25.80;;
70545;SDS011;58098;51.680;5.134;2022-12-18T01:09:37;63.60;;;22.30;;
70545;SDS011;58098;51.680;5.134;2022-12-18T01:12:02;60.57;;;22.37;;
70545;SDS011;58098;51.680;5.134;2022-12-18T01:14:28;67.83;;;24.03;;
70545;SDS011;58098;51.680;5.134;2022-12-18T01:16:53;69.65;;;23.00;;
70545;SDS011;58098;51.680;5.134;2022-12-18T01:19:18;72.00;;;24.03;;
70545;SDS011;58098;51.680;5.134;2022-12-18T01:21:44;62.93;;;21.73;;
70545;SDS011;58098;51.680;5.134;2022-12-18T01:24:10;64.10;;;22.87;;
70545;SDS011;58098;51.680;5.134;2022-12-18T01:26:36;64.60;;;22.35;;
70545;SDS011;58098;51.680;5.134;2022-12-18T01:29:02;65.83;;;23.07;;
70545;SDS011;58098;51.680;5.134;2022-12-18T01:31:28;69.70;;;23.53;;
70545;SDS011;58098;51.680;5.134;2022-12-18T01:33:55;65.18;;;22.60;;
70545;SDS011;58098;51.680;5.134;2022-12-18T01:36:22;63.58;;;22.52;;
70545;SDS011;58098;51.680;5.134;2022-12-18T01:38:49;63.70;;;22.63;;
70545;SDS011;58098;51.680;5.134;2022-12-18T01:41:17;66.20;;;23.00;;
70545;SDS011;58098;51.680;5.134;2022-12-18T01:43:44;65.78;;;23.15;;
70545;SDS011;58098;51.680;5.134;2022-12-18T01:46:13;65.57;;;21.40;;
70545;SDS011;58098;51.680;5.134;2022-12-18T01:48:39;67.22;;;23.60;;
70545;SDS011;58098;51.680;5.134;2022-12-18T01:51:06;66.63;;;22.67;;
70545;SDS011;58098;51.680;5.134;2022-12-18T01:53:34;62.28;;;22.25;;
70545;SDS011;58098;51.680;5.134;2022-12-18T01:56:01;65.00;;;22.15;;
70545;SDS011;58098;51.680;5.134;2022-12-18T01:58:30;61.50;;;21.63;;
70545;SDS011;58098;51.680;5.134;2022-12-18T02:01:04;62.77;;;20.07;;
70545;SDS011;58098;51.680;5.134;2022-12-18T02:03:30;60.30;;;20.33;;
70545;SDS011;58098;51.680;5.134;2022-12-18T02:13:32;58.40;;;20.13;;
70545;SDS011;58098;51.680;5.134;2022-12-18T02:18:38;64.05;;;20.67;;
70545;SDS011;58098;51.680;5.134;2022-12-18T02:22:11;62.03;;;22.58;;
70545;SDS011;58098;51.680;5.134;2022-12-18T02:26:38;60.90;;;19.92;;
70545;SDS011;58098;51.680;5.134;2022-12-18T02:29:18;59.42;;;20.80;;
70545;SDS011;58098;51.680;5.134;2022-12-18T02:31:51;56.15;;;20.17;;
70545;SDS011;58098;51.680;5.134;2022-12-18T02:34:20;53.67;;;19.70;;
70545;SDS011;58098;51.680;5.134;2022-12-18T02:36:50;60.10;;;20.47;;
70545;SDS011;58098;51.680;5.134;2022-12-18T02:39:16;55.53;;;20.58;;
70545;SDS011;58098;51.680;5.134;2022-12-18T02:41:43;62.15;;;21.77;;
70545;SDS011;58098;51.680;5.134;2022-12-18T02:44:10;58.17;;;21.17;;
70545;SDS011;58098;51.680;5.134;2022-12-18T02:46:46;49.83;;;19.27;;
70545;SDS011;58098;51.680;5.134;2022-12-18T03:03:55;56.55;;;19.30;;
70545;SDS011;58098;51.680;5.134;2022-12-18T03:06:27;52.70;;;20.30;;
70545;SDS011;58098;51.680;5.134;2022-12-18T03:09:01;57.10;;;20.57;;
70545;SDS011;58098;51.680;5.134;2022-12-18T03:11:32;53.22;;;20.65;;
70545;SDS011;58098;51.680;5.134;2022-12-18T03:14:20;53.92;;;19.65;;
70545;SDS011;58098;51.680;5.134;2022-12-18T03:16:52;48.92;;;19.75;;
70545;SDS011;58098;51.680;5.134;2022-12-18T03:19:24;57.22;;;20.52;;
70545;SDS011;58098;51.680;5.134;2022-12-18T03:21:54;55.87;;;20.43;;
70545;SDS011;58098;51.680;5.134;2022-12-18T03:24:22;54.67;;;18.83;;
70545;SDS011;58098;51.680;5.134;2022-12-18T03:26:51;56.05;;;19.10;;
70545;SDS011;58098;51.680;5.134;2022-12-18T03:31:53;53.13;;;19.42;;
70545;SDS011;58098;51.680;5.134;2022-12-18T03:34:23;52.17;;;19.83;;
70545;SDS011;58098;51.680;5.134;2022-12-18T03:36:54;56.50;;;20.58;;
70545;SDS011;58098;51.680;5.134;2022-12-18T03:39:19;55.40;;;20.10;;
70545;SDS011;58098;51.680;5.134;2022-12-18T03:41:52;61.03;;;19.60;;
70545;SDS011;58098;51.680;5.134;2022-12-18T03:49:50;58.97;;;19.60;;
70545;SDS011;58098;51.680;5.134;2022-12-18T03:55:10;49.92;;;18.15;;
70545;SDS011;58098;51.680;5.134;2022-12-18T03:57:37;52.05;;;18.55;;
70545;SDS011;58098;51.680;5.134;2022-12-18T04:00:05;47.53;;;19.63;;
70545;SDS011;58098;51.680;5.134;2022-12-18T04:02:38;43.35;;;17.65;;
70545;SDS011;58098;51.680;5.134;2022-12-18T04:05:08;44.80;;;17.55;;
70545;SDS011;58098;51.680;5.134;2022-12-18T04:07:35;48.83;;;16.83;;
70545;SDS011;58098;51.680;5.134;2022-12-18T04:10:02;43.25;;;17.95;;
70545;SDS011;58098;51.680;5.134;2022-12-18T04:12:31;45.67;;;18.30;;
70545;SDS011;58098;51.680;5.134;2022-12-18T04:14:56;37.17;;;15.75;;
70545;SDS011;58098;51.680;5.134;2022-12-18T04:17:22;44.47;;;18.70;;
70545;SDS011;58098;51.680;5.134;2022-12-18T04:19:47;42.00;;;17.10;;
70545;SDS011;58098;51.680;5.134;2022-12-18T04:22:12;48.83;;;17.67;;
70545;SDS011;58098;51.680;5.134;2022-12-18T04:24:38;39.50;;;16.57;;
70545;SDS011;58098;51.680;5.134;2022-12-18T04:27:03;42.10;;;16.95;;
70545;SDS011;58098;51.680;5.134;2022-12-18T04:29:29;43.47;;;17.67;;
70545;SDS011;58098;51.680;5.134;2022-12-18T04:31:54;38.03;;;15.97;;
70545;SDS011;58098;51.680;5.134;2022-12-18T04:34:19;45.43;;;18.17;;
70545;SDS011;58098;51.680;5.134;2022-12-18T04:36:45;38.20;;;16.85;;
70545;SDS011;58098;51.680;5.134;2022-12-18T04:39:11;42.60;;;16.93;;
70545;SDS011;58098;51.680;5.134;2022-12-18T04:41:36;48.70;;;16.57;;
70545;SDS011;58098;51.680;5.134;2022-12-18T04:44:01;43.17;;;17.23;;
70545;SDS011;58098;51.680;5.134;2022-12-18T04:46:27;48.43;;;17.80;;
70545;SDS011;58098;51.680;5.134;2022-12-18T04:48:52;39.27;;;17.50;;
70545;SDS011;58098;51.680;5.134;2022-12-18T04:51:18;41.80;;;17.67;;
70545;SDS011;58098;51.680;5.134;2022-12-18T04:53:43;44.37;;;17.50;;
70545;SDS011;58098;51.680;5.134;2022-12-18T04:56:09;40.63;;;17.37;;
70545;SDS011;58098;51.680;5.134;2022-12-18T04:58:37;41.55;;;17.55;;
70545;SDS011;58098;51.680;5.134;2022-12-18T05:01:04;46.20;;;17.15;;
70545;SDS011;58098;51.680;5.134;2022-12-18T05:03:30;40.78;;;16.95;;
70545;SDS011;58098;51.680;5.134;2022-12-18T05:05:56;48.63;;;17.17;;
70545;SDS011;58098;51.680;5.134;2022-12-18T05:08:21;37.77;;;16.97;;
70545;SDS011;58098;51.680;5.134;2022-12-18T05:10:46;44.53;;;16.40;;
70545;SDS011;58098;51.680;5.134;2022-12-18T05:13:12;41.10;;;17.60;;
70545;SDS011;58098;51.680;5.134;2022-12-18T05:15:37;46.55;;;17.00;;
70545;SDS011;58098;51.680;5.134;2022-12-18T05:18:02;40.90;;;15.80;;
70545;SDS011;58098;51.680;5.134;2022-12-18T05:20:29;42.60;;;15.50;;
70545;SDS011;58098;51.680;5.134;2022-12-18T05:22:54;37.58;;;16.38;;
70545;SDS011;58098;51.680;5.134;2022-12-18T05:25:20;42.13;;;16.40;;
70545;SDS011;58098;51.680;5.134;2022-12-18T05:27:46;39.67;;;16.85;;
70545;SDS011;58098;51.680;5.134;2022-12-18T05:30:12;41.35;;;17.40;;
70545;SDS011;58098;51.680;5.134;2022-12-18T05:32:39;38.92;;;16.27;;
70545;SDS011;58098;51.680;5.134;2022-12-18T05:35:05;35.77;;;16.27;;
70545;SDS011;58098;51.680;5.134;2022-12-18T05:37:32;41.38;;;15.43;;
70545;SDS011;58098;51.680;5.134;2022-12-18T05:39:57;40.57;;;17.03;;
70545;SDS011;58098;51.680;5.134;2022-12-18T05:42:22;34.97;;;15.70;;
70545;SDS011;58098;51.680;5.134;2022-12-18T05:44:48;44.75;;;16.83;;
70545;SDS011;58098;51.680;5.134;2022-12-18T05:47:13;32.23;;;15.10;;
70545;SDS011;58098;51.680;5.134;2022-12-18T05:49:39;39.10;;;15.37;;
70545;SDS011;58098;51.680;5.134;2022-12-18T05:52:04;32.67;;;14.35;;
70545;SDS011;58098;51.680;5.134;2022-12-18T05:54:29;39.33;;;15.43;;
70545;SDS011;58098;51.680;5.134;2022-12-18T05:56:56;39.90;;;16.13;;
70545;SDS011;58098;51.680;5.134;2022-12-18T05:59:21;35.50;;;15.17;;
70545;SDS011;58098;51.680;5.134;2022-12-18T06:01:47;33.17;;;15.30;;
70545;SDS011;58098;51.680;5.134;2022-12-18T06:04:12;34.57;;;14.87;;
70545;SDS011;58098;51.680;5.134;2022-12-18T06:06:37;34.17;;;14.83;;
70545;SDS011;58098;51.680;5.134;2022-12-18T06:09:03;38.67;;;14.13;;
70545;SDS011;58098;51.680;5.134;2022-12-18T06:11:33;35.65;;;13.95;;
70545;SDS011;58098;51.680;5.134;2022-12-18T06:14:00;30.37;;;12.77;;
70545;SDS011;58098;51.680;5.134;2022-12-18T06:16:29;28.00;;;13.05;;
70545;SDS011;58098;51.680;5.134;2022-12-18T06:18:56;32.13;;;13.93;;
70545;SDS011;58098;51.680;5.134;2022-12-18T06:21:22;35.55;;;14.27;;
70545;SDS011;58098;51.680;5.134;2022-12-18T06:23:47;28.50;;;13.20;;
70545;SDS011;58098;51.680;5.134;2022-12-18T06:26:13;30.97;;;14.27;;
70545;SDS011;58098;51.680;5.134;2022-12-18T06:28:39;32.17;;;13.80;;
70545;SDS011;58098;51.680;5.134;2022-12-18T06:31:05;33.47;;;13.23;;
70545;SDS011;58098;51.680;5.134;2022-12-18T06:33:31;35.15;;;14.60;;
70545;SDS011;58098;51.680;5.134;2022-12-18T06:36:00;34.20;;;13.23;;
70545;SDS011;58098;51.680;5.134;2022-12-18T06:38:28;32.60;;;13.57;;
70545;SDS011;58098;51.680;5.134;2022-12-18T06:40:53;40.83;;;13.73;;
70545;SDS011;58098;51.680;5.134;2022-12-18T06:43:18;36.17;;;13.40;;
70545;SDS011;58098;51.680;5.134;2022-12-18T06:45:44;30.43;;;12.43;;
70545;SDS011;58098;51.680;5.134;2022-12-18T06:48:09;30.70;;;12.60;;
70545;SDS011;58098;51.680;5.134;2022-12-18T06:50:34;32.50;;;12.30;;
70545;SDS011;58098;51.680;5.134;2022-12-18T06:53:00;32.33;;;13.13;;
70545;SDS011;58098;51.680;5.134;2022-12-18T06:55:25;33.00;;;13.57;;
70545;SDS011;58098;51.680;5.134;2022-12-18T06:57:50;33.55;;;13.02;;
70545;SDS011;58098;51.680;5.134;2022-12-18T07:00:16;32.07;;;12.47;;
70545;SDS011;58098;51.680;5.134;2022-12-18T07:02:41;30.77;;;12.87;;
70545;SDS011;58098;51.680;5.134;2022-12-18T07:05:07;28.20;;;12.67;;
70545;SDS011;58098;51.680;5.134;2022-12-18T07:07:33;30.55;;;13.60;;
70545;SDS011;58098;51.680;5.134;2022-12-18T07:09:59;32.83;;;12.70;;
70545;SDS011;58098;51.680;5.134;2022-12-18T07:12:26;31.25;;;13.98;;
70545;SDS011;58098;51.680;5.134;2022-12-18T07:14:51;30.43;;;12.90;;
70545;SDS011;58098;51.680;5.134;2022-12-18T07:17:17;30.50;;;12.93;;
70545;SDS011;58098;51.680;5.134;2022-12-18T07:19:42;37.33;;;13.30;;
70545;SDS011;58098;51.680;5.134;2022-12-18T07:22:07;34.63;;;12.87;;
70545;SDS011;58098;51.680;5.134;2022-12-18T07:24:33;34.03;;;13.67;;
70545;SDS011;58098;51.680;5.134;2022-12-18T07:26:59;31.90;;;13.32;;
70545;SDS011;58098;51.680;5.134;2022-12-18T07:29:24;36.40;;;13.60;;
70545;SDS011;58098;51.680;5.134;2022-12-18T07:31:50;29.20;;;13.00;;
70545;SDS011;58098;51.680;5.134;2022-12-18T07:34:15;25.57;;;12.00;;
70545;SDS011;58098;51.680;5.134;2022-12-18T07:36:40;29.57;;;13.53;;
70545;SDS011;58098;51.680;5.134;2022-12-18T07:39:06;30.83;;;13.82;;
70545;SDS011;58098;51.680;5.134;2022-12-18T07:41:31;33.80;;;13.43;;
70545;SDS011;58098;51.680;5.134;2022-12-18T07:43:57;30.00;;;12.30;;
70545;SDS011;58098;51.680;5.134;2022-12-18T07:46:22;31.83;;;12.73;;
70545;SDS011;58098;51.680;5.134;2022-12-18T07:48:47;36.77;;;13.17;;
70545;SDS011;58098;51.680;5.134;2022-12-18T07:51:13;30.97;;;13.33;;
70545;SDS011;58098;51.680;5.134;2022-12-18T07:53:38;34.37;;;13.47;;
70545;SDS011;58098;51.680;5.134;2022-12-18T07:56:08;33.60;;;13.40;;
70545;SDS011;58098;51.680;5.134;2022-12-18T07:58:35;30.48;;;13.82;;
70545;SDS011;58098;51.680;5.134;2022-12-18T08:01:08;33.45;;;13.98;;
70545;SDS011;58098;51.680;5.134;2022-12-18T08:03:34;30.33;;;13.82;;
70545;SDS011;58098;51.680;5.134;2022-12-18T08:06:00;32.23;;;13.90;;
70545;SDS011;58098;51.680;5.134;2022-12-18T08:08:27;30.00;;;13.48;;
70545;SDS011;58098;51.680;5.134;2022-12-18T08:10:53;36.28;;;13.93;;
70545;SDS011;58098;51.680;5.134;2022-12-18T08:13:18;33.43;;;14.30;;
70545;SDS011;58098;51.680;5.134;2022-12-18T08:15:43;30.47;;;12.63;;
70545;SDS011;58098;51.680;5.134;2022-12-18T08:18:08;27.97;;;14.03;;
70545;SDS011;58098;51.680;5.134;2022-12-18T08:20:34;33.90;;;13.43;;
70545;SDS011;58098;51.680;5.134;2022-12-18T08:22:59;30.57;;;13.50;;
70545;SDS011;58098;51.680;5.134;2022-12-18T08:25:24;33.33;;;14.20;;
70545;SDS011;58098;51.680;5.134;2022-12-18T08:27:50;31.97;;;13.27;;
70545;SDS011;58098;51.680;5.134;2022-12-18T08:30:15;33.00;;;13.73;;
70545;SDS011;58098;51.680;5.134;2022-12-18T08:32:41;36.80;;;13.87;;
70545;SDS011;58098;51.680;5.134;2022-12-18T08:35:06;36.13;;;12.87;;
70545;SDS011;58098;51.680;5.134;2022-12-18T08:37:33;34.90;;;15.10;;
70545;SDS011;58098;51.680;5.134;2022-12-18T08:39:58;31.03;;;13.80;;
70545;SDS011;58098;51.680;5.134;2022-12-18T08:42:24;29.83;;;13.87;;
70545;SDS011;58098;51.680;5.134;2022-12-18T08:45:07;38.03;;;14.80;;
70545;SDS011;58098;51.680;5.134;2022-12-18T08:47:33;35.03;;;14.45;;
70545;SDS011;58098;51.680;5.134;2022-12-18T08:49:58;31.40;;;14.33;;
70545;SDS011;58098;51.680;5.134;2022-12-18T08:52:24;32.00;;;13.50;;
70545;SDS011;58098;51.680;5.134;2022-12-18T08:54:49;23.30;;;10.47;;
70545;SDS011;58098;51.680;5.134;2022-12-18T08:57:14;30.87;;;13.03;;
70545;SDS011;58098;51.680;5.134;2022-12-18T08:59:40;31.67;;;15.10;;
70545;SDS011;58098;51.680;5.134;2022-12-18T09:02:05;35.40;;;13.77;;
70545;SDS011;58098;51.680;5.134;2022-12-18T09:04:30;29.57;;;13.57;;
70545;SDS011;58098;51.680;5.134;2022-12-18T09:06:56;29.70;;;13.17;;
70545;SDS011;58098;51.680;5.134;2022-12-18T09:09:21;32.50;;;14.03;;
70545;SDS011;58098;51.680;5.134;2022-12-18T09:11:46;35.63;;;14.27;;
70545;SDS011;58098;51.680;5.134;2022-12-18T09:14:12;36.63;;;14.97;;
70545;SDS011;58098;51.680;5.134;2022-12-18T09:16:37;35.80;;;14.27;;
70545;SDS011;58098;51.680;5.134;2022-12-18T09:19:03;38.53;;;16.43;;
70545;SDS011;58098;51.680;5.134;2022-12-18T09:21:30;41.58;;;16.80;;
70545;SDS011;58098;51.680;5.134;2022-12-18T09:23:57;34.05;;;15.88;;
70545;SDS011;58098;51.680;5.134;2022-12-18T09:26:23;36.73;;;15.97;;
70545;SDS011;58098;51.680;5.134;2022-12-18T09:28:49;38.50;;;16.75;;
70545;SDS011;58098;51.680;5.134;2022-12-18T09:31:15;36.33;;;16.38;;
70545;SDS011;58098;51.680;5.134;2022-12-18T09:33:42;38.00;;;15.93;;
70545;SDS011;58098;51.680;5.134;2022-12-18T09:36:09;35.08;;;15.98;;
70545;SDS011;58098;51.680;5.134;2022-12-18T09:38:36;37.00;;;14.70;;
70545;SDS011;58098;51.680;5.134;2022-12-18T09:41:26;37.05;;;16.15;;
70545;SDS011;58098;51.680;5.134;2022-12-18T09:44:29;40.83;;;16.93;;
70545;SDS011;58098;51.680;5.134;2022-12-18T09:47:19;39.22;;;16.48;;
70545;SDS011;58098;51.680;5.134;2022-12-18T09:49:52;34.42;;;16.65;;
70545;SDS011;58098;51.680;5.134;2022-12-18T09:52:28;39.28;;;16.65;;
70545;SDS011;58098;51.680;5.134;2022-12-18T09:57:53;37.07;;;16.60;;
70545;SDS011;58098;51.680;5.134;2022-12-18T10:00:23;43.88;;;17.88;;
70545;SDS011;58098;51.680;5.134;2022-12-18T10:02:50;38.33;;;16.88;;
70545;SDS011;58098;51.680;5.134;2022-12-18T10:05:29;38.58;;;17.27;;
70545;SDS011;58098;51.680;5.134;2022-12-18T10:08:05;41.58;;;16.80;;
70545;SDS011;58098;51.680;5.134;2022-12-18T10:10:57;38.40;;;18.27;;
70545;SDS011;58098;51.680;5.134;2022-12-18T10:17:09;37.40;;;16.70;;
70545;SDS011;58098;51.680;5.134;2022-12-18T10:24:55;47.23;;;18.47;;
70545;SDS011;58098;51.680;5.134;2022-12-18T10:27:28;44.50;;;19.10;;
70545;SDS011;58098;51.680;5.134;2022-12-18T10:29:55;40.67;;;18.02;;
70545;SDS011;58098;51.680;5.134;2022-12-18T10:32:25;42.83;;;18.85;;
70545;SDS011;58098;51.680;5.134;2022-12-18T10:34:53;42.70;;;17.70;;
70545;SDS011;58098;51.680;5.134;2022-12-18T10:37:21;41.90;;;18.33;;
70545;SDS011;58098;51.680;5.134;2022-12-18T10:40:04;40.45;;;18.08;;
70545;SDS011;58098;51.680;5.134;2022-12-18T10:42:32;42.58;;;18.48;;
70545;SDS011;58098;51.680;5.134;2022-12-18T10:45:02;40.70;;;17.77;;
70545;SDS011;58098;51.680;5.134;2022-12-18T10:47:36;36.80;;;17.30;;
70545;SDS011;58098;51.680;5.134;2022-12-18T10:50:11;41.33;;;18.70;;
70545;SDS011;58098;51.680;5.134;2022-12-18T10:52:44;37.50;;;17.52;;
70545;SDS011;58098;51.680;5.134;2022-12-18T10:55:34;35.57;;;17.20;;
70545;SDS011;58098;51.680;5.134;2022-12-18T10:58:25;34.65;;;16.88;;
70545;SDS011;58098;51.680;5.134;2022-12-18T11:06:24;36.38;;;17.08;;
70545;SDS011;58098;51.680;5.134;2022-12-18T11:09:33;38.50;;;18.37;;
70545;SDS011;58098;51.680;5.134;2022-12-18T11:11:49;38.17;;;16.77;;
70545;SDS011;58098;51.680;5.134;2022-12-18T11:14:24;49.15;;;18.15;;
70545;SDS011;58098;51.680;5.134;2022-12-18T11:16:52;37.38;;;17.08;;
70545;SDS011;58098;51.680;5.134;2022-12-18T11:19:30;38.10;;;18.23;;
70545;SDS011;58098;51.680;5.134;2022-12-18T11:21:58;37.90;;;17.40;;
70545;SDS011;58098;51.680;5.134;2022-12-18T11:24:32;36.15;;;16.95;;
70545;SDS011;58098;51.680;5.134;2022-12-18T11:27:03;35.22;;;16.33;;
70545;SDS011;58098;51.680;5.134;2022-12-18T11:29:37;38.95;;;17.30;;
70545;SDS011;58098;51.680;5.134;2022-12-18T11:35:14;37.10;;;16.83;;
70545;SDS011;58098;51.680;5.134;2022-12-18T11:37:41;36.45;;;17.13;;
70545;SDS011;58098;51.680;5.134;2022-12-18T11:40:17;45.13;;;18.63;;
70545;SDS011;58098;51.680;5.134;2022-12-18T11:42:54;38.08;;;17.38;;
70545;SDS011;58098;51.680;5.134;2022-12-18T11:45:27;34.80;;;16.35;;
70545;SDS011;58098;51.680;5.134;2022-12-18T11:53:18;39.33;;;17.98;;
70545;SDS011;58098;51.680;5.134;2022-12-18T11:58:24;37.53;;;17.80;;
70545;SDS011;58098;51.680;5.134;2022-12-18T12:01:12;38.97;;;18.53;;
70545;SDS011;58098;51.680;5.134;2022-12-18T12:09:14;34.40;;;16.58;;
70545;SDS011;58098;51.680;5.134;2022-12-18T12:12:16;36.25;;;16.77;;
70545;SDS011;58098;51.680;5.134;2022-12-18T12:15:17;38.50;;;16.63;;
70545;SDS011;58098;51.680;5.134;2022-12-18T12:17:57;39.13;;;17.98;;
70545;SDS011;58098;51.680;5.134;2022-12-18T12:20:42;36.30;;;16.75;;
70545;SDS011;58098;51.680;5.134;2022-12-18T12:23:19;38.17;;;18.00;;
70545;SDS011;58098;51.680;5.134;2022-12-18T12:26:01;36.10;;;16.67;;
70545;SDS011;58098;51.680;5.134;2022-12-18T12:28:44;31.97;;;15.70;;
70545;SDS011;58098;51.680;5.134;2022-12-18T12:40:17;39.92;;;18.08;;
70545;SDS011;58098;51.680;5.134;2022-12-18T12:42:51;41.10;;;17.57;;
70545;SDS011;58098;51.680;5.134;2022-12-18T12:53:50;38.38;;;18.02;;
70545;SDS011;58098;51.680;5.134;2022-12-18T12:56:18;36.10;;;17.40;;
70545;SDS011;58098;51.680;5.134;2022-12-18T13:01:28;35.45;;;17.50;;
70545;SDS011;58098;51.680;5.134;2022-12-18T13:04:18;38.95;;;18.20;;
70545;SDS011;58098;51.680;5.134;2022-12-18T13:09:30;31.70;;;16.47;;
70545;SDS011;58098;51.680;5.134;2022-12-18T13:12:03;35.00;;;15.75;;
70545;SDS011;58098;51.680;5.134;2022-12-18T13:15:11;32.97;;;15.52;;
70545;SDS011;58098;51.680;5.134;2022-12-18T13:17:45;32.83;;;16.23;;
70545;SDS011;58098;51.680;5.134;2022-12-18T13:20:12;38.00;;;17.33;;
70545;SDS011;58098;51.680;5.134;2022-12-18T13:22:46;31.92;;;14.63;;
70545;SDS011;58098;51.680;5.134;2022-12-18T13:38:20;39.92;;;17.58;;
70545;SDS011;58098;51.680;5.134;2022-12-18T13:45:45;40.33;;;15.60;;
70545;SDS011;58098;51.680;5.134;2022-12-18T13:48:27;31.17;;;15.40;;
70545;SDS011;58098;51.680;5.134;2022-12-18T13:50:57;35.67;;;17.20;;
70545;SDS011;58098;51.680;5.134;2022-12-18T13:53:36;34.92;;;15.88;;
70545;SDS011;58098;51.680;5.134;2022-12-18T13:56:24;36.78;;;17.45;;
70545;SDS011;58098;51.680;5.134;2022-12-18T13:59:04;35.03;;;16.23;;
70545;SDS011;58098;51.680;5.134;2022-12-18T14:01:33;36.05;;;16.38;;
70545;SDS011;58098;51.680;5.134;2022-12-18T14:06:58;32.45;;;16.17;;
70545;SDS011;58098;51.680;5.134;2022-12-18T14:09:30;33.10;;;16.17;;
70545;SDS011;58098;51.680;5.134;2022-12-18T14:11:59;35.63;;;17.30;;
70545;SDS011;58098;51.680;5.134;2022-12-18T14:14:45;37.03;;;16.37;;
70545;SDS011;58098;51.680;5.134;2022-12-18T14:17:12;41.70;;;18.60;;
70545;SDS011;58098;51.680;5.134;2022-12-18T14:19:46;35.30;;;16.63;;
70545;SDS011;58098;51.680;5.134;2022-12-18T14:22:21;34.95;;;17.52;;
70545;SDS011;58098;51.680;5.134;2022-12-18T14:27:38;41.93;;;17.77;;
70545;SDS011;58098;51.680;5.134;2022-12-18T14:35:42;32.13;;;15.70;;
70545;SDS011;58098;51.680;5.134;2022-12-18T14:38:19;36.92;;;17.50;;
70545;SDS011;58098;51.680;5.134;2022-12-18T14:40:55;35.60;;;16.67;;
70545;SDS011;58098;51.680;5.134;2022-12-18T14:43:36;36.53;;;16.63;;
70545;SDS011;58098;51.680;5.134;2022-12-18T14:46:03;33.42;;;17.23;;
70545;SDS011;58098;51.680;5.134;2022-12-18T14:48:51;34.38;;;14.90;;
70545;SDS011;58098;51.680;5.134;2022-12-18T14:51:18;31.35;;;15.60;;
70545;SDS011;58098;51.680;5.134;2022-12-18T14:53:47;34.03;;;16.40;;
70545;SDS011;58098;51.680;5.134;2022-12-18T14:56:19;33.13;;;15.75;;
70545;SDS011;58098;51.680;5.134;2022-12-18T14:58:50;37.47;;;16.80;;
70545;SDS011;58098;51.680;5.134;2022-12-18T15:01:23;33.47;;;16.83;;
70545;SDS011;58098;51.680;5.134;2022-12-18T15:03:51;33.53;;;16.20;;
70545;SDS011;58098;51.680;5.134;2022-12-18T15:06:28;36.07;;;15.87;;
70545;SDS011;58098;51.680;5.134;2022-12-18T15:09:02;34.10;;;16.05;;
70545;SDS011;58098;51.680;5.134;2022-12-18T15:11:45;33.97;;;16.10;;
70545;SDS011;58098;51.680;5.134;2022-12-18T15:16:56;31.48;;;16.00;;
70545;SDS011;58098;51.680;5.134;2022-12-18T15:19:25;36.67;;;16.07;;
70545;SDS011;58098;51.680;5.134;2022-12-18T15:21:59;36.35;;;16.35;;
70545;SDS011;58098;51.680;5.134;2022-12-18T15:24:26;33.73;;;15.67;;
70545;SDS011;58098;51.680;5.134;2022-12-18T15:26:54;37.20;;;16.33;;
70545;SDS011;58098;51.680;5.134;2022-12-18T15:29:23;35.10;;;16.30;;
70545;SDS011;58098;51.680;5.134;2022-12-18T15:32:00;34.47;;;16.13;;
70545;SDS011;58098;51.680;5.134;2022-12-18T15:34:29;32.53;;;15.57;;
70545;SDS011;58098;51.680;5.134;2022-12-18T15:36:56;31.25;;;15.25;;
70545;SDS011;58098;51.680;5.134;2022-12-18T15:39:21;31.77;;;14.87;;
70545;SDS011;58098;51.680;5.134;2022-12-18T15:41:47;29.43;;;15.10;;
70545;SDS011;58098;51.680;5.134;2022-12-18T15:44:30;33.17;;;15.43;;
70545;SDS011;58098;51.680;5.134;2022-12-18T15:46:56;36.10;;;16.07;;
70545;SDS011;58098;51.680;5.134;2022-12-18T15:49:22;29.15;;;14.18;;
70545;SDS011;58098;51.680;5.134;2022-12-18T15:51:57;34.83;;;16.07;;
70545;SDS011;58098;51.680;5.134;2022-12-18T15:54:24;30.95;;;15.52;;
70545;SDS011;58098;51.680;5.134;2022-12-18T15:57:11;33.17;;;14.90;;
70545;SDS011;58098;51.680;5.134;2022-12-18T15:59:53;33.78;;;15.40;;
70545;SDS011;58098;51.680;5.134;2022-12-18T16:02:21;37.57;;;16.83;;
70545;SDS011;58098;51.680;5.134;2022-12-18T16:04:47;35.75;;;16.25;;
70545;SDS011;58098;51.680;5.134;2022-12-18T16:07:13;34.15;;;15.98;;
70545;SDS011;58098;51.680;5.134;2022-12-18T16:09:38;35.10;;;15.93;;
70545;SDS011;58098;51.680;5.134;2022-12-18T16:12:04;30.63;;;15.00;;
70545;SDS011;58098;51.680;5.134;2022-12-18T16:14:31;34.28;;;16.38;;
70545;SDS011;58098;51.680;5.134;2022-12-18T16:16:57;33.50;;;15.65;;
70545;SDS011;58098;51.680;5.134;2022-12-18T16:19:27;34.83;;;15.37;;
70545;SDS011;58098;51.680;5.134;2022-12-18T16:21:54;33.70;;;15.55;;
70545;SDS011;58098;51.680;5.134;2022-12-18T16:24:21;36.30;;;16.40;;
70545;SDS011;58098;51.680;5.134;2022-12-18T16:26:49;36.60;;;17.20;;
70545;SDS011;58098;51.680;5.134;2022-12-18T16:29:18;33.90;;;15.57;;
70545;SDS011;58098;51.680;5.134;2022-12-18T16:31:44;37.53;;;16.02;;
70545;SDS011;58098;51.680;5.134;2022-12-18T16:34:10;34.60;;;16.67;;
70545;SDS011;58098;51.680;5.134;2022-12-18T16:36:47;33.75;;;15.57;;
70545;SDS011;58098;51.680;5.134;2022-12-18T16:39:13;34.78;;;16.40;;
70545;SDS011;58098;51.680;5.134;2022-12-18T16:41:38;34.43;;;15.80;;